Ely, NV

5:13 PM PST on February 21, 2017 (GMT -0800)
South Murry St | | Change Station
Active Advisory: Wind Advisory

Elev 6542 ft 39.23 °N, 114.90 °W | Updated 23 seconds ago

Overcast
Overcast
46.4 °F
Feels Like 38 °F
N
22.0
Wind Variable Wind from SW

Today
High -- | Low -- °F
--% Chance of Precip.
Yesterday
High -- | Low -- °F
Precip. -- in
Pressure 29.87 in
Visibility 10.0 miles
Clouds Scattered Clouds 7500 ft
Overcast 9000 ft
Windchill 38 °F
Dew Point 29 °F
Humidity 50%
Rainfall 0.02 in
Snow Depth Not available.
6:22 AM 5:23 PM
Waning Crescent, 21% visible
METAR KELY 220053Z AUTO 19020G32KT 10SM SCT075 OVC090 09/M03 A2998 RMK AO2 PK WND 21034/0033 RAB26E35 SLP115 P0000 T00891028
Pressure 29.87 in
Visibility 10.0 miles
Clouds Scattered Clouds 7500 ft
Overcast 9000 ft
Windchill 38 °F
Dew Point 29 °F
Humidity 50%
Rainfall 0.02 in
Snow Depth Not available.
6:22 AM 5:23 PM
Waning Crescent, 21% visible
METAR KELY 220053Z AUTO 19020G32KT 10SM SCT075 OVC090 09/M03 A2998 RMK AO2 PK WND 21034/0033 RAB26E35 SLP115 P0000 T00891028

Get Your Daily Forecast Email!

Thanks for signing up!

Be on the lookout for a verification email in your inbox.

You'll start receiving the daily forecast at 8 AM.

×

10-Day Weather Forecast

Almanac

Astronomy

Feb. 21, 2017 Rise Set
Actual Time
Civil Twilight
Nautical Twilight
Astronomical Twilight
Moon
Length of Visible Light
Length of Day
Tomorrow will be .
, % of the Moon is Illuminated

Today's Extremes

State Highs State Lows

Community

WunderPhotos

Upload Photos

1,962,540 photos uploaded!

WunderBlog® & News

Nearby

Air Quality

  Air Quality AQ Index Pollutant
Not available.

Snow Depth

Station Depth Elevation

Earthquake Activity

City Distance Mag. Time & Date
Minimum magnitude displayed is 2.5.

Coastal Water Temperatures

Place Temperature

Stations

Nearby Weather Stations

Station Location Temp. Windchill Dew Point Humidity Wind Precip. Elev Updated Type
                   

Watches & Warnings

Wind Advisory
Issued: 2:19 PM PST Feb. 21, 2017 – National Weather Service

... Wind Advisory remains in effect until 7 PM PST this evening...

* winds... southwest 25 to 35 mph gusting to around 55 mph.

* Timing... winds are expected to diminish late this afternoon and evening.

* Impacts... drivers of vans, campers, trailers, and other high-
profile vehicles should be alert to the danger of these
winds, especially when driving along east to west roads.
Secure loose outdoor objects such as trash cans.

Precautionary/preparedness actions...

A Wind Advisory means that sustained winds of 30 mph with gusts
in excess of 45 mph are expected. Winds this strong can make
driving difficult, especially for high profile vehicles. Use
extra caution.